Salt Lake City, Utah
Traffic Map
Current Weather Conditions
Salt Lake City, Utah
Broken Clouds
Broken Clouds
18°
Feels Like: 18°
Wind Chill: 18° Ceiling: 11000
Heat Index: 18° Visibility: 10mi
Dew Point: Wind: 3mph
Humidity: 45% Direction: ° ()
Pressure: 29.87in Gusts: 0mph
Raw Report DataKSLC 250053Z VRB03KT 10SM FEW045 SCT080 BKN110 18/06 A2987 RMK AO2 SLP084 T01830061
Traffic Incident Summary
Active as of:
Severity:
Category:
InformationThere was an issue retrieving the traffic information for this location. Please try a different location or try again shortly.
Advertisements
Track Severe Weather on mobile